Time;durP1;ratioP1;P1;durP2;ratioP2;P2;SDS_P1;SDS_P2;PMS_P1;PMS_P2;Temp;Humidity;BMP_temperature;BMP_pressure;BME280_temperature;BME280_humidity;BME280_pressure;Samples;Min_cycle;Max_cycle;Signal;HPM_P1;HPM_P2
2023/06/27 00:00:05;;;;;;;;;;;19.60;97.30;;;;;;5065678;28;19943;-67
2023/06/27 00:02:33;;;;;;;;;;;19.70;97.30;;;;;;5065281;28;19928;-68
2023/06/27 00:05:00;;;;;;;;;;;19.70;97.10;;;;;;5064964;28;19980;-67
2023/06/27 00:07:27;;;;;;;;;;;19.60;97.30;;;;;;5065042;28;20116;-67
2023/06/27 00:09:54;;;;;;;;;;;19.60;97.20;;;;;;5065074;28;19920;-68
2023/06/27 00:12:21;;;;;;;;;;;19.50;97.30;;;;;;5065475;28;19943;-68
2023/06/27 00:14:49;;;;;;;;;;;19.50;97.40;;;;;;5064863;28;20287;-68
2023/06/27 00:17:16;;;;;;;;;;;19.50;97.20;;;;;;5064523;28;19952;-68
2023/06/27 00:19:44;;;;;;;;;;;19.50;97.20;;;;;;5065403;28;19921;-67
2023/06/27 00:22:11;;;;;;;;;;;19.40;97.20;;;;;;5064880;28;19921;-68
2023/06/27 00:24:38;;;;;;;;;;;19.40;97.40;;;;;;5065084;28;19920;-67
2023/06/27 00:27:06;;;;;;;;;;;19.40;97.50;;;;;;5064417;28;20115;-67
2023/06/27 00:29:32;;;;;;;;;;;19.40;97.60;;;;;;5065008;28;19927;-68
2023/06/27 00:32:00;;;;;;;;;;;19.40;97.60;;;;;;5065047;28;19920;-67
2023/06/27 00:34:27;;;;;;;;;;;19.30;97.60;;;;;;5052284;28;20111;-68
2023/06/27 00:36:55;;;;;;;;;;;19.30;98.00;;;;;;5043156;28;20000;-67
2023/06/27 00:39:21;;;;;;;;;;;19.30;97.70;;;;;;5044665;28;19968;-68
2023/06/27 00:41:48;;;;;;;;;;;19.30;97.50;;;;;;5044845;28;19921;-68
2023/06/27 00:44:15;;;;;;;;;;;19.20;97.50;;;;;;5044632;28;19928;-68
2023/06/27 00:46:42;;;;;;;;;;;19.20;97.70;;;;;;5043540;28;19988;-67
2023/06/27 00:49:11;;;;;;;;;;;19.20;97.40;;;;;;5044829;28;20012;-67
2023/06/27 00:51:40;;;;;;;;;;;19.20;97.50;;;;;;5044724;28;19927;-68
2023/06/27 00:54:07;;;;;;;;;;;19.20;97.50;;;;;;5044302;28;19927;-68
2023/06/27 00:56:34;;;;;;;;;;;19.20;97.50;;;;;;5043351;28;20111;-68
2023/06/27 00:59:01;;;;;;;;;;;19.20;97.40;;;;;;5044270;28;19921;-67
2023/06/27 01:01:29;;;;;;;;;;;19.20;97.40;;;;;;5044175;28;20115;-67
2023/06/27 01:03:55;;;;;;;;;;;19.20;97.30;;;;;;5044459;28;20295;-68
2023/06/27 01:06:27;;;;;;;;;;;19.20;97.30;;;;;;5043637;28;19963;-68
2023/06/27 01:08:56;;;;;;;;;;;19.20;97.40;;;;;;5044448;28;19992;-68
2023/06/27 01:11:26;;;;;;;;;;;19.10;97.40;;;;;;5044324;28;20124;-67
2023/06/27 01:13:55;;;;;;;;;;;19.10;97.60;;;;;;5044331;28;19921;-68
2023/06/27 01:16:23;;;;;;;;;;;19.10;97.70;;;;;;5043520;28;20291;-68
2023/06/27 01:18:51;;;;;;;;;;;19.00;97.80;;;;;;5043828;28;19928;-67
2023/06/27 01:21:20;;;;;;;;;;;19.00;98.00;;;;;;5043780;28;20208;-67
2023/06/27 01:23:53;;;;;;;;;;;19.00;98.10;;;;;;5043921;28;19928;-68
2023/06/27 01:26:19;;;;;;;;;;;18.90;98.30;;;;;;5043278;28;19928;-67
2023/06/27 01:28:46;;;;;;;;;;;18.90;98.50;;;;;;5044097;28;19951;-68
2023/06/27 01:31:15;;;;;;;;;;;18.90;98.40;;;;;;5043642;28;20223;-68
2023/06/27 01:33:46;;;;;;;;;;;18.80;98.50;;;;;;5043956;28;19943;-67
2023/06/27 01:36:18;;;;;;;;;;;18.80;98.60;;;;;;5042084;28;20886;-67
2023/06/27 01:38:48;;;;;;;;;;;18.70;98.70;;;;;;5043623;28;19963;-68
2023/06/27 01:41:17;;;;;;;;;;;18.70;98.60;;;;;;5060763;28;19921;-68
2023/06/27 01:43:45;;;;;;;;;;;18.70;98.60;;;;;;5063442;28;19921;-68
2023/06/27 01:46:11;;;;;;;;;;;18.60;98.80;;;;;;5062536;28;19921;-68
2023/06/27 01:48:40;;;;;;;;;;;18.50;98.80;;;;;;5054564;28;19921;-67
2023/06/27 01:51:08;;;;;;;;;;;18.60;98.80;;;;;;5043614;28;19928;-67
2023/06/27 01:53:35;;;;;;;;;;;18.60;98.90;;;;;;5043408;28;19987;-67
2023/06/27 01:56:02;;;;;;;;;;;18.50;98.90;;;;;;5042672;28;19921;-68
2023/06/27 01:58:30;;;;;;;;;;;18.50;99.00;;;;;;5043584;28;19921;-67
2023/06/27 02:00:57;;;;;;;;;;;18.50;99.10;;;;;;5043623;28;20119;-68
2023/06/27 02:03:23;;;;;;;;;;;18.50;99.20;;;;;;5043159;28;19952;-68
2023/06/27 02:05:50;;;;;;;;;;;18.50;99.30;;;;;;5042592;28;19993;-68
2023/06/27 02:08:17;;;;;;;;;;;18.50;99.30;;;;;;5042737;28;19996;-67
2023/06/27 02:10:43;;;;;;;;;;;18.40;99.30;;;;;;5043358;28;19988;-69
2023/06/27 02:13:10;;;;;;;;;;;18.40;99.40;;;;;;5043362;28;19988;-67
2023/06/27 02:15:38;;;;;;;;;;;18.40;99.50;;;;;;5042525;28;19927;-68
2023/06/27 02:18:04;;;;;;;;;;;18.40;99.60;;;;;;5043410;28;19922;-69
2023/06/27 02:20:31;;;;;;;;;;;18.40;99.70;;;;;;5043362;28;20016;-68
2023/06/27 02:22:58;;;;;;;;;;;18.30;99.80;;;;;;5043083;28;19921;-69
2023/06/27 02:25:24;;;;;;;;;;;18.30;99.80;;;;;;5042561;28;20168;-68
2023/06/27 02:27:51;;;;;;;;;;;18.30;99.90;;;;;;5043366;28;19921;-68
2023/06/27 02:30:18;;;;;;;;;;;18.20;99.90;;;;;;5043342;28;20003;-67
2023/06/27 02:32:45;;;;;;;;;;;18.20;99.90;;;;;;5043370;28;19955;-68
2023/06/27 02:35:15;;;;;;;;;;;18.10;99.90;;;;;;5042662;28;19944;-68
2023/06/27 02:37:41;;;;;;;;;;;18.10;99.90;;;;;;5042831;28;19921;-68
2023/06/27 02:40:09;;;;;;;;;;;18.10;99.90;;;;;;5042968;28;19952;-67
2023/06/27 02:42:35;;;;;;;;;;;18.10;99.90;;;;;;5043151;28;19921;-68
2023/06/27 02:45:02;;;;;;;;;;;18.10;99.90;;;;;;5042783;28;19988;-68
2023/06/27 02:47:29;;;;;;;;;;;18.10;99.90;;;;;;5042654;28;19921;-67
2023/06/27 02:49:57;;;;;;;;;;;18.10;99.90;;;;;;5042805;28;20283;-67
2023/06/27 02:52:23;;;;;;;;;;;18.10;99.90;;;;;;5043196;28;19928;-67
2023/06/27 02:54:50;;;;;;;;;;;18.10;99.90;;;;;;5042932;28;19988;-68
2023/06/27 02:57:16;;;;;;;;;;;18.00;99.90;;;;;;5042122;28;20000;-67
2023/06/27 02:59:43;;;;;;;;;;;18.00;99.90;;;;;;5043087;28;19988;-68
2023/06/27 03:02:09;;;;;;;;;;;18.00;99.90;;;;;;5042683;28;20156;-68
2023/06/27 03:04:37;;;;;;;;;;;17.90;99.90;;;;;;5042834;28;19996;-68
2023/06/27 03:07:05;;;;;;;;;;;17.80;99.90;;;;;;5041884;28;19988;-68
2023/06/27 03:09:32;;;;;;;;;;;17.80;99.90;;;;;;5042852;28;20116;-68
2023/06/27 03:11:59;;;;;;;;;;;17.80;99.90;;;;;;5042655;28;20185;-68
2023/06/27 03:14:26;;;;;;;;;;;17.80;99.90;;;;;;5042910;28;19921;-67
2023/06/27 03:16:54;;;;;;;;;;;17.70;99.90;;;;;;5041689;28;20000;-68
2023/06/27 03:19:20;;;;;;;;;;;17.70;99.90;;;;;;5043817;28;20162;-68
2023/06/27 03:21:47;;;;;;;;;;;17.60;99.90;;;;;;5046075;28;20229;-67
2023/06/27 03:24:15;;;;;;;;;;;17.60;99.90;;;;;;5046128;28;19928;-68
2023/06/27 03:26:42;;;;;;;;;;;17.60;99.90;;;;;;5045490;28;19927;-67
2023/06/27 03:29:08;;;;;;;;;;;17.60;99.90;;;;;;5046292;28;19921;-68
2023/06/27 03:31:35;;;;;;;;;;;17.60;99.90;;;;;;5046220;28;19959;-67
2023/06/27 03:34:03;;;;;;;;;;;17.50;99.90;;;;;;5045912;28;20266;-67
2023/06/27 03:36:33;;;;;;;;;;;17.50;99.90;;;;;;5045083;28;19925;-68
2023/06/27 03:38:59;;;;;;;;;;;17.50;99.90;;;;;;5046166;28;19928;-68
2023/06/27 03:41:27;;;;;;;;;;;17.40;99.90;;;;;;5046135;28;20111;-68
2023/06/27 03:43:54;;;;;;;;;;;17.50;99.90;;;;;;5045586;28;20156;-68
2023/06/27 03:46:20;;;;;;;;;;;17.50;99.90;;;;;;5044818;28;19928;-67
2023/06/27 03:48:51;;;;;;;;;;;17.50;99.90;;;;;;5045406;28;20228;-68
2023/06/27 03:51:17;;;;;;;;;;;17.40;99.90;;;;;;5045940;28;19921;-68
2023/06/27 03:53:44;;;;;;;;;;;17.40;99.90;;;;;;5045559;28;19921;-68
2023/06/27 03:56:11;;;;;;;;;;;17.40;99.90;;;;;;5044661;28;20259;-68
2023/06/27 03:58:39;;;;;;;;;;;17.30;99.90;;;;;;5045534;28;19997;-67
2023/06/27 04:01:05;;;;;;;;;;;17.30;99.90;;;;;;5059411;28;19925;-67
2023/06/27 04:03:32;;;;;;;;;;;17.30;99.90;;;;;;5058407;28;19955;-68
2023/06/27 04:05:59;;;;;;;;;;;17.30;99.90;;;;;;5053707;28;19997;-67
2023/06/27 04:08:25;;;;;;;;;;;17.30;99.90;;;;;;5045576;28;19967;-68
2023/06/27 04:10:52;;;;;;;;;;;17.30;99.90;;;;;;5045527;28;19952;-68
2023/06/27 04:13:19;;;;;;;;;;;17.20;99.90;;;;;;5045533;28;19921;-67
2023/06/27 04:15:46;;;;;;;;;;;17.10;99.90;;;;;;5061984;28;20286;-68
2023/06/27 04:18:13;;;;;;;;;;;17.00;99.90;;;;;;5065084;28;19927;-68
2023/06/27 04:20:40;;;;;;;;;;;17.00;99.90;;;;;;5045348;28;19992;-68
2023/06/27 04:23:06;;;;;;;;;;;16.90;99.90;;;;;;5044956;28;20119;-68
2023/06/27 04:25:33;;;;;;;;;;;16.90;99.90;;;;;;5044263;28;19984;-68
2023/06/27 04:28:00;;;;;;;;;;;16.90;99.90;;;;;;5045139;28;19921;-68
2023/06/27 04:30:27;;;;;;;;;;;16.90;99.90;;;;;;5044572;28;19921;-68
2023/06/27 04:32:55;;;;;;;;;;;16.90;99.90;;;;;;5044784;28;19948;-67
2023/06/27 04:35:21;;;;;;;;;;;16.90;99.90;;;;;;5044040;28;19921;-68
2023/06/27 04:37:48;;;;;;;;;;;16.90;99.90;;;;;;5044928;28;19957;-67
2023/06/27 04:40:15;;;;;;;;;;;16.90;99.90;;;;;;5044807;28;20000;-68
2023/06/27 04:42:42;;;;;;;;;;;16.90;99.90;;;;;;5044561;28;19921;-67
2023/06/27 04:45:09;;;;;;;;;;;16.90;99.90;;;;;;5043908;28;19992;-68
2023/06/27 04:47:36;;;;;;;;;;;16.80;99.90;;;;;;5044574;28;19993;-68
2023/06/27 04:50:05;;;;;;;;;;;16.80;99.90;;;;;;5044561;28;19921;-68
2023/06/27 04:52:31;;;;;;;;;;;16.70;99.90;;;;;;5044864;28;19928;-68
2023/06/27 04:54:58;;;;;;;;;;;16.60;99.90;;;;;;5044181;28;19932;-68
2023/06/27 04:57:25;;;;;;;;;;;16.60;99.90;;;;;;5043709;28;19929;-68
2023/06/27 04:59:51;;;;;;;;;;;16.60;99.90;;;;;;5044638;28;19921;-68
2023/06/27 05:02:18;;;;;;;;;;;16.60;99.90;;;;;;5044312;28;19956;-68
2023/06/27 05:04:45;;;;;;;;;;;16.70;99.90;;;;;;5044033;28;19963;-68
2023/06/27 05:07:13;;;;;;;;;;;16.70;99.90;;;;;;5043868;28;19987;-67
2023/06/27 05:09:39;;;;;;;;;;;16.70;99.90;;;;;;5044450;28;19988;-68
2023/06/27 05:12:06;;;;;;;;;;;16.70;99.90;;;;;;5072661;28;19983;-68
2023/06/27 05:14:33;;;;;;;;;;;16.80;99.90;;;;;;5083973;28;20283;-68
2023/06/27 05:16:59;;;;;;;;;;;16.80;99.90;;;;;;5083216;28;19966;-67
2023/06/27 05:19:26;;;;;;;;;;;16.80;99.90;;;;;;5084139;28;19988;-67
2023/06/27 05:21:53;;;;;;;;;;;16.90;99.90;;;;;;5075204;28;19927;-68
2023/06/27 05:24:21;;;;;;;;;;;17.00;99.90;;;;;;5064004;28;19952;-68
2023/06/27 05:26:47;;;;;;;;;;;17.00;99.90;;;;;;5063649;28;19987;-68
2023/06/27 05:29:14;;;;;;;;;;;17.00;99.90;;;;;;5075233;28;19926;-68
2023/06/27 05:31:41;;;;;;;;;;;17.00;99.90;;;;;;5076909;28;19984;-67
2023/06/27 05:34:07;;;;;;;;;;;17.10;99.90;;;;;;5055999;28;19929;-70
2023/06/27 05:36:34;;;;;;;;;;;17.10;99.90;;;;;;5048886;28;19920;-69
2023/06/27 05:39:01;;;;;;;;;;;17.10;99.90;;;;;;5063480;28;19921;-68
2023/06/27 05:41:30;;;;;;;;;;;17.20;99.90;;;;;;5063593;28;19983;-69
2023/06/27 05:43:56;;;;;;;;;;;17.20;99.90;;;;;;5063488;28;19927;-69
2023/06/27 05:46:23;;;;;;;;;;;17.20;99.90;;;;;;5062241;28;19956;-68
2023/06/27 05:48:50;;;;;;;;;;;17.30;99.90;;;;;;5060587;28;20120;-69
2023/06/27 05:51:16;;;;;;;;;;;17.30;99.90;;;;;;5063672;28;19984;-68
2023/06/27 05:53:43;;;;;;;;;;;17.30;99.90;;;;;;5063695;28;19927;-68
2023/06/27 05:56:09;;;;;;;;;;;17.30;99.90;;;;;;5062771;28;19960;-69
2023/06/27 05:58:37;;;;;;;;;;;17.40;99.90;;;;;;5063335;28;20259;-68
2023/06/27 06:01:04;;;;;;;;;;;17.30;99.90;;;;;;5063107;28;19921;-69
2023/06/27 06:03:33;;;;;;;;;;;17.40;99.90;;;;;;5063196;28;19921;-68
2023/06/27 06:06:00;;;;;;;;;;;17.30;99.90;;;;;;5062383;28;20299;-70
2023/06/27 06:08:26;;;;;;;;;;;17.40;99.90;;;;;;5063438;28;19984;-69
2023/06/27 06:10:53;;;;;;;;;;;17.40;99.90;;;;;;5063411;28;19963;-69
2023/06/27 06:13:19;;;;;;;;;;;17.40;99.90;;;;;;5063522;28;19952;-68
2023/06/27 06:15:47;;;;;;;;;;;17.40;99.90;;;;;;5062590;28;19927;-69
2023/06/27 06:18:14;;;;;;;;;;;17.40;99.90;;;;;;5062831;28;19927;-68
2023/06/27 06:20:41;;;;;;;;;;;17.40;99.90;;;;;;5062867;28;20291;-69
2023/06/27 06:23:07;;;;;;;;;;;17.50;99.90;;;;;;5060852;28;19952;-69
2023/06/27 06:25:35;;;;;;;;;;;17.50;99.90;;;;;;5053707;28;19959;-70
2023/06/27 06:28:02;;;;;;;;;;;17.60;99.90;;;;;;5055871;28;19984;-67
2023/06/27 06:30:28;;;;;;;;;;;17.60;99.90;;;;;;5043109;28;20380;-70
2023/06/27 06:32:56;;;;;;;;;;;17.60;99.90;;;;;;5055756;28;19956;-71
2023/06/27 06:35:23;;;;;;;;;;;17.60;99.90;;;;;;5051099;28;19935;-68
2023/06/27 06:37:49;;;;;;;;;;;17.60;99.90;;;;;;5042775;28;20292;-68
2023/06/27 06:40:24;;;;;;;;;;;17.60;99.90;;;;;;5044410;28;19921;-69
2023/06/27 06:42:50;;;;;;;;;;;17.60;99.90;;;;;;5062946;28;19921;-69
2023/06/27 06:45:17;;;;;;;;;;;17.60;99.90;;;;;;5062031;28;19992;-68
2023/06/27 06:47:44;;;;;;;;;;;17.60;99.90;;;;;;5063042;28;19921;-69
2023/06/27 06:50:12;;;;;;;;;;;17.60;99.90;;;;;;5062619;28;19963;-68
2023/06/27 06:52:38;;;;;;;;;;;17.60;99.90;;;;;;5062893;28;19921;-68
2023/06/27 06:55:06;;;;;;;;;;;17.70;99.90;;;;;;5064450;28;20293;-69
2023/06/27 06:57:32;;;;;;;;;;;17.70;99.90;;;;;;5061770;28;20167;-69
2023/06/27 06:59:59;;;;;;;;;;;17.70;99.90;;;;;;5046656;28;19935;-69
2023/06/27 07:02:25;;;;;;;;;;;17.70;99.90;;;;;;5046700;28;20120;-68
2023/06/27 07:04:52;;;;;;;;;;;17.80;99.90;;;;;;5046170;28;19928;-69
2023/06/27 07:07:23;;;;;;;;;;;17.80;99.90;;;;;;5045987;28;19984;-68
2023/06/27 07:09:49;;;;;;;;;;;17.70;99.90;;;;;;5046499;28;19936;-69
2023/06/27 07:12:16;;;;;;;;;;;17.70;99.90;;;;;;5046526;28;19988;-71
2023/06/27 07:14:42;;;;;;;;;;;17.70;99.90;;;;;;5045987;28;19989;-69
2023/06/27 07:17:09;;;;;;;;;;;17.60;99.90;;;;;;5045437;28;20209;-69
2023/06/27 07:19:36;;;;;;;;;;;17.60;99.90;;;;;;5062902;28;19951;-68
2023/06/27 07:22:02;;;;;;;;;;;17.60;99.90;;;;;;5086317;28;19928;-68
2023/06/27 07:24:30;;;;;;;;;;;17.60;99.90;;;;;;5069328;28;19963;-68
2023/06/27 07:26:57;;;;;;;;;;;17.60;99.90;;;;;;5057008;28;19921;-68
2023/06/27 07:29:23;;;;;;;;;;;17.70;99.90;;;;;;5066157;28;20243;-69
2023/06/27 07:31:50;;;;;;;;;;;17.70;99.90;;;;;;5065983;28;19940;-68
2023/06/27 07:34:17;;;;;;;;;;;17.70;99.90;;;;;;5066218;28;20265;-68
2023/06/27 07:36:43;;;;;;;;;;;17.70;99.90;;;;;;5064968;28;20177;-68
2023/06/27 07:39:10;;;;;;;;;;;17.70;99.90;;;;;;5057641;28;19924;-69
2023/06/27 07:41:38;;;;;;;;;;;17.80;99.90;;;;;;5045716;28;20000;-69
2023/06/27 07:44:05;;;;;;;;;;;17.80;99.90;;;;;;5045957;28;19921;-68
2023/06/27 07:46:31;;;;;;;;;;;17.80;99.90;;;;;;5044631;28;19921;-69
2023/06/27 07:48:59;;;;;;;;;;;17.90;99.90;;;;;;5045675;28;19956;-68
2023/06/27 07:51:26;;;;;;;;;;;18.00;99.90;;;;;;5042858;28;20232;-68
2023/06/27 07:53:54;;;;;;;;;;;17.90;99.90;;;;;;5045691;28;19963;-68
2023/06/27 07:56:21;;;;;;;;;;;17.90;99.90;;;;;;5044824;28;19984;-68
2023/06/27 07:58:49;;;;;;;;;;;17.90;99.90;;;;;;5045199;28;19921;-69
2023/06/27 08:01:17;;;;;;;;;;;17.90;99.90;;;;;;5045142;28;19992;-69
2023/06/27 08:03:47;;;;;;;;;;;18.00;99.90;;;;;;5045319;28;19921;-69
2023/06/27 08:06:14;;;;;;;;;;;18.00;99.90;;;;;;5043329;28;20263;-68
2023/06/27 08:08:41;;;;;;;;;;;17.90;99.90;;;;;;5045604;28;20204;-69
2023/06/27 08:11:07;;;;;;;;;;;17.90;99.90;;;;;;5045604;28;19921;-68
2023/06/27 08:13:38;;;;;;;;;;;18.00;99.90;;;;;;5045495;28;19976;-69
2023/06/27 08:16:06;;;;;;;;;;;18.00;99.90;;;;;;5044625;28;19983;-69
2023/06/27 08:18:33;;;;;;;;;;;18.10;99.90;;;;;;5045285;28;19921;-68
2023/06/27 08:20:59;;;;;;;;;;;18.10;99.90;;;;;;5045223;28;20181;-69
2023/06/27 08:23:27;;;;;;;;;;;18.10;99.90;;;;;;5048437;28;19952;-69
2023/06/27 08:25:54;;;;;;;;;;;18.20;99.90;;;;;;5046405;28;19928;-68
2023/06/27 08:28:20;;;;;;;;;;;18.30;99.90;;;;;;5045213;28;19921;-69
2023/06/27 08:30:47;;;;;;;;;;;18.40;99.90;;;;;;5045076;28;19927;-69
2023/06/27 08:33:15;;;;;;;;;;;18.50;99.90;;;;;;5061989;28;19963;-69
2023/06/27 08:35:43;;;;;;;;;;;18.50;99.90;;;;;;5063928;28;19983;-69
2023/06/27 08:38:10;;;;;;;;;;;18.60;99.90;;;;;;5064871;28;19927;-69
2023/06/27 08:40:37;;;;;;;;;;;18.60;99.90;;;;;;5064580;28;19920;-68
2023/06/27 08:43:05;;;;;;;;;;;18.60;99.90;;;;;;5063827;28;19956;-69
2023/06/27 08:45:35;;;;;;;;;;;18.50;99.90;;;;;;5062454;28;19921;-73
2023/06/27 08:48:02;;;;;;;;;;;18.60;99.90;;;;;;5064420;28;19925;-72
2023/06/27 08:50:32;;;;;;;;;;;18.60;99.90;;;;;;5064221;28;19921;-70
2023/06/27 08:52:59;;;;;;;;;;;18.70;99.90;;;;;;5060725;28;19920;-70
2023/06/27 08:55:29;;;;;;;;;;;18.70;99.90;;;;;;5063771;28;19927;-71
2023/06/27 08:57:57;;;;;;;;;;;18.80;99.90;;;;;;5064749;28;19927;-71
2023/06/27 09:00:26;;;;;;;;;;;18.90;99.90;;;;;;5062988;28;19958;-70
2023/06/27 09:02:53;;;;;;;;;;;19.00;99.90;;;;;;5064613;28;19921;-71
2023/06/27 09:05:20;;;;;;;;;;;19.00;99.90;;;;;;5064102;28;19920;-71
2023/06/27 09:07:49;;;;;;;;;;;19.10;99.90;;;;;;5064574;28;19983;-71
2023/06/27 09:10:16;;;;;;;;;;;19.20;99.90;;;;;;5064148;28;19980;-70
2023/06/27 09:12:43;;;;;;;;;;;19.30;99.90;;;;;;5064224;28;20212;-71
2023/06/27 09:15:11;;;;;;;;;;;19.40;99.90;;;;;;5063554;28;20205;-70
2023/06/27 09:17:38;;;;;;;;;;;19.40;99.90;;;;;;5063403;28;20227;-71
2023/06/27 09:20:06;;;;;;;;;;;19.50;99.90;;;;;;5064110;28;19980;-71
2023/06/27 09:22:33;;;;;;;;;;;19.60;99.90;;;;;;5064005;28;20151;-71
2023/06/27 09:25:14;;;;;;;;;;;19.70;99.90;;;;;;5064057;28;19988;-71
2023/06/27 09:27:41;;;;;;;;;;;19.70;99.90;;;;;;5063933;28;19983;-71
2023/06/27 09:30:08;;;;;;;;;;;19.90;99.70;;;;;;5064195;28;20115;-71
2023/06/27 09:32:35;;;;;;;;;;;19.90;99.70;;;;;;5064131;28;19921;-70
2023/06/27 09:35:03;;;;;;;;;;;20.00;99.90;;;;;;5063632;28;19921;-70
2023/06/27 09:37:31;;;;;;;;;;;20.10;99.30;;;;;;5063536;28;19925;-71
2023/06/27 09:39:58;;;;;;;;;;;20.20;99.70;;;;;;5063867;28;19921;-72
2023/06/27 09:42:30;;;;;;;;;;;20.30;99.70;;;;;;5063924;28;19921;-71
2023/06/27 09:45:13;;;;;;;;;;;20.30;98.80;;;;;;5063625;28;19976;-72
2023/06/27 09:47:41;;;;;;;;;;;20.40;99.20;;;;;;5064027;28;19988;-70
2023/06/27 09:50:08;;;;;;;;;;;20.50;97.00;;;;;;5064067;28;19943;-71
2023/06/27 09:52:35;;;;;;;;;;;20.50;97.90;;;;;;5063780;28;19927;-70
2023/06/27 09:55:02;;;;;;;;;;;20.50;97.00;;;;;;5063591;28;19983;-71
2023/06/27 09:57:31;;;;;;;;;;;20.60;96.20;;;;;;5063418;28;19966;-70
2023/06/27 09:59:58;;;;;;;;;;;20.70;96.30;;;;;;5063637;28;19921;-70
2023/06/27 10:02:27;;;;;;;;;;;20.80;96.70;;;;;;5063781;28;19959;-73
2023/06/27 10:04:54;;;;;;;;;;;20.90;96.70;;;;;;5063607;28;19921;-71
2023/06/27 10:07:21;;;;;;;;;;;21.00;94.80;;;;;;5062956;28;19921;-73
2023/06/27 10:09:48;;;;;;;;;;;21.10;94.20;;;;;;5063193;28;20208;-71
2023/06/27 10:12:15;;;;;;;;;;;21.20;94.70;;;;;;5063675;28;19988;-70
2023/06/27 10:14:44;;;;;;;;;;;21.30;94.20;;;;;;5062339;28;19952;-69
2023/06/27 10:17:16;;;;;;;;;;;21.40;94.90;;;;;;5062652;28;19921;-72
2023/06/27 10:19:43;;;;;;;;;;;21.50;94.60;;;;;;5063242;28;20212;-69
2023/06/27 10:22:11;;;;;;;;;;;21.50;94.60;;;;;;5063013;28;20259;-69
2023/06/27 10:24:41;;;;;;;;;;;21.60;94.50;;;;;;5063070;28;19921;-70
2023/06/27 10:27:09;;;;;;;;;;;21.50;93.40;;;;;;5061736;28;19959;-69
2023/06/27 10:29:40;;;;;;;;;;;21.40;93.00;;;;;;5064390;28;19992;-70
2023/06/27 10:32:09;;;;;;;;;;;21.40;93.40;;;;;;5066562;28;19959;-70
2023/06/27 10:34:38;;;;;;;;;;;21.50;93.80;;;;;;5065539;28;19928;-70
2023/06/27 10:37:05;;;;;;;;;;;21.70;93.80;;;;;;5064584;28;20363;-70
2023/06/27 10:39:32;;;;;;;;;;;21.80;93.50;;;;;;5066031;28;20220;-70
2023/06/27 10:42:03;;;;;;;;;;;21.90;93.80;;;;;;5066730;28;19927;-70
2023/06/27 10:44:30;;;;;;;;;;;22.00;93.60;;;;;;5067188;28;19920;-71
2023/06/27 10:47:15;;;;;;;;;;;22.20;93.70;;;;;;5065981;28;19935;-70
2023/06/27 10:49:45;;;;;;;;;;;22.40;93.70;;;;;;5066858;28;20259;-69
2023/06/27 10:52:20;;;;;;;;;;;22.40;92.80;;;;;;5067011;28;19942;-70
2023/06/27 10:54:48;;;;;;;;;;;22.60;93.30;;;;;;5066990;28;20133;-70
2023/06/27 10:57:16;;;;;;;;;;;22.90;93.10;;;;;;5066074;28;19963;-70
2023/06/27 10:59:45;;;;;;;;;;;23.10;92.90;;;;;;5066901;28;19927;-70
2023/06/27 11:02:12;;;;;;;;;;;23.10;92.70;;;;;;5066530;28;20306;-70
2023/06/27 11:04:41;;;;;;;;;;;23.20;92.80;;;;;;5066674;28;20139;-70
2023/06/27 11:07:09;;;;;;;;;;;22.90;92.00;;;;;;5066167;28;19956;-69
2023/06/27 11:09:36;;;;;;;;;;;22.70;92.40;;;;;;5066871;28;19921;-70
2023/06/27 11:12:11;;;;;;;;;;;22.60;92.90;;;;;;5066820;28;19985;-69
2023/06/27 11:14:40;;;;;;;;;;;22.50;93.10;;;;;;5066329;28;19920;-70
2023/06/27 11:17:06;;;;;;;;;;;22.40;93.40;;;;;;5065870;28;19921;-70
2023/06/27 11:19:34;;;;;;;;;;;22.40;93.00;;;;;;5066168;28;19921;-70
2023/06/27 11:22:01;;;;;;;;;;;22.60;92.90;;;;;;5066553;28;20145;-69
2023/06/27 11:24:30;;;;;;;;;;;22.70;92.50;;;;;;5054487;28;19921;-69
2023/06/27 11:26:57;;;;;;;;;;;22.80;92.80;;;;;;5045476;28;19921;-70
2023/06/27 11:29:23;;;;;;;;;;;22.90;92.80;;;;;;5046409;28;19921;-70
2023/06/27 11:31:50;;;;;;;;;;;22.90;92.90;;;;;;5046366;28;19944;-70
2023/06/27 11:34:18;;;;;;;;;;;22.60;92.80;;;;;;5047989;28;19921;-70
2023/06/27 11:36:45;;;;;;;;;;;22.70;93.10;;;;;;5063695;28;20089;-70
2023/06/27 11:39:12;;;;;;;;;;;22.90;92.60;;;;;;5065372;28;19929;-70
2023/06/27 11:41:40;;;;;;;;;;;23.10;92.50;;;;;;5065980;28;19953;-69
2023/06/27 11:44:09;;;;;;;;;;;23.10;92.60;;;;;;5066548;28;20242;-70
2023/06/27 11:46:35;;;;;;;;;;;23.10;91.90;;;;;;5065025;28;19921;-70
2023/06/27 11:49:02;;;;;;;;;;;23.10;92.50;;;;;;5066019;28;19927;-70
2023/06/27 11:51:38;;;;;;;;;;;22.90;92.20;;;;;;5065946;28;19936;-70
2023/06/27 11:54:07;;;;;;;;;;;22.90;92.50;;;;;;5065499;28;19921;-70
2023/06/27 11:56:33;;;;;;;;;;;22.80;92.30;;;;;;5064719;28;20152;-70
2023/06/27 11:59:01;;;;;;;;;;;22.80;92.70;;;;;;5065758;28;19971;-70
2023/06/27 12:01:32;;;;;;;;;;;22.80;92.90;;;;;;5065678;28;19920;-70
2023/06/27 12:04:00;;;;;;;;;;;22.90;92.80;;;;;;5065649;28;20112;-70
2023/06/27 12:06:27;;;;;;;;;;;23.00;92.30;;;;;;5064343;28;20120;-69
2023/06/27 12:08:54;;;;;;;;;;;23.00;91.10;;;;;;5065604;28;19921;-69
2023/06/27 12:11:25;;;;;;;;;;;23.10;91.90;;;;;;5065445;28;19928;-69
2023/06/27 12:13:52;;;;;;;;;;;23.10;91.50;;;;;;5065390;28;19975;-69
2023/06/27 12:16:24;;;;;;;;;;;23.10;92.70;;;;;;5064614;28;19921;-69
2023/06/27 12:18:53;;;;;;;;;;;23.20;91.80;;;;;;5065207;28;20008;-69
2023/06/27 12:21:20;;;;;;;;;;;23.20;92.20;;;;;;5065464;28;20119;-68
2023/06/27 12:23:46;;;;;;;;;;;23.30;91.70;;;;;;5065008;28;19989;-68
2023/06/27 12:26:14;;;;;;;;;;;23.30;91.60;;;;;;5061825;28;19963;-69
2023/06/27 12:28:54;;;;;;;;;;;23.20;90.80;;;;;;5065180;28;19927;-69
2023/06/27 12:31:21;;;;;;;;;;;23.10;91.20;;;;;;5064837;28;20205;-69
2023/06/27 12:33:50;;;;;;;;;;;23.10;90.70;;;;;;5064997;28;19921;-69
2023/06/27 12:36:17;;;;;;;;;;;23.20;91.20;;;;;;5064001;28;19921;-69
2023/06/27 12:38:44;;;;;;;;;;;23.20;91.90;;;;;;5064852;28;19920;-69
2023/06/27 12:41:11;;;;;;;;;;;23.40;91.00;;;;;;5064834;28;20406;-69
2023/06/27 12:43:37;;;;;;;;;;;23.50;90.60;;;;;;5064848;28;19963;-68
2023/06/27 12:46:04;;;;;;;;;;;23.60;91.10;;;;;;5063548;28;19925;-69
2023/06/27 12:48:33;;;;;;;;;;;23.70;91.50;;;;;;5064470;28;19984;-68
2023/06/27 12:51:02;;;;;;;;;;;23.60;90.50;;;;;;5064734;28;19921;-67
2023/06/27 12:53:29;;;;;;;;;;;23.80;90.90;;;;;;5064044;28;19920;-69
2023/06/27 12:55:56;;;;;;;;;;;23.80;90.70;;;;;;5063762;28;19979;-67
2023/06/27 12:58:22;;;;;;;;;;;23.90;90.70;;;;;;5064165;28;20268;-68
2023/06/27 13:00:49;;;;;;;;;;;24.00;90.40;;;;;;5060789;28;20239;-68
2023/06/27 13:12:17;;;;;;;;;;;24.10;86.70;;;;;;4989905;28;19928;-69
2023/06/27 13:14:44;;;;;;;;;;;24.10;88.50;;;;;;5055361;28;20351;-69
2023/06/27 13:17:11;;;;;;;;;;;24.00;88.70;;;;;;5062041;28;19980;-69
2023/06/27 13:19:39;;;;;;;;;;;24.00;90.00;;;;;;5041548;28;19979;-69
2023/06/27 13:22:06;;;;;;;;;;;23.80;88.30;;;;;;5052913;28;19921;-71
2023/06/27 13:24:34;;;;;;;;;;;23.70;89.60;;;;;;5060838;28;19983;-69
2023/06/27 13:27:01;;;;;;;;;;;23.70;89.10;;;;;;5060829;28;20151;-69
2023/06/27 13:29:29;;;;;;;;;;;23.70;90.10;;;;;;5057742;28;19980;-69
2023/06/27 13:31:55;;;;;;;;;;;23.60;89.20;;;;;;5043707;28;20156;-69
2023/06/27 13:34:23;;;;;;;;;;;23.70;89.60;;;;;;5046854;28;19955;-68
2023/06/27 13:36:50;;;;;;;;;;;23.80;90.40;;;;;;5063015;28;19920;-68
2023/06/27 13:39:17;;;;;;;;;;;23.80;90.70;;;;;;5064011;28;19928;-69
2023/06/27 13:41:44;;;;;;;;;;;23.90;90.00;;;;;;5063756;28;20139;-69
2023/06/27 13:44:11;;;;;;;;;;;23.80;90.00;;;;;;5060542;28;19984;-69
2023/06/27 13:46:39;;;;;;;;;;;23.80;90.70;;;;;;5040222;28;20090;-70
2023/06/27 13:49:09;;;;;;;;;;;23.70;91.00;;;;;;5063366;28;19921;-69
2023/06/27 13:51:36;;;;;;;;;;;23.80;91.30;;;;;;5058353;28;19927;-70
2023/06/27 13:54:02;;;;;;;;;;;23.90;91.50;;;;;;5052142;28;19948;-68
2023/06/27 13:56:35;;;;;;;;;;;24.00;91.20;;;;;;5040507;28;19944;-68
2023/06/27 13:59:03;;;;;;;;;;;24.00;90.80;;;;;;5040834;28;19947;-69
2023/06/27 14:01:29;;;;;;;;;;;23.90;90.90;;;;;;5053728;28;19991;-68
2023/06/27 14:03:58;;;;;;;;;;;24.00;90.70;;;;;;5062700;28;19952;-69
2023/06/27 14:06:25;;;;;;;;;;;23.90;90.50;;;;;;5061612;28;19924;-69
2023/06/27 14:08:52;;;;;;;;;;;24.20;90.50;;;;;;5063488;28;20131;-68
2023/06/27 14:11:19;;;;;;;;;;;24.40;90.80;;;;;;5063182;28;19959;-68
2023/06/27 14:13:47;;;;;;;;;;;24.50;90.90;;;;;;5062836;28;19927;-71
2023/06/27 14:16:14;;;;;;;;;;;24.60;91.20;;;;;;5047453;28;19921;-69
2023/06/27 14:18:40;;;;;;;;;;;24.80;91.30;;;;;;5063050;28;19920;-68
2023/06/27 14:21:09;;;;;;;;;;;24.90;90.40;;;;;;5063298;28;19956;-68
2023/06/27 14:23:36;;;;;;;;;;;25.00;91.30;;;;;;5049941;28;19984;-68
2023/06/27 14:26:02;;;;;;;;;;;25.00;90.30;;;;;;5042772;28;19988;-69